PWSweather.com
Personal Weather Stations
Station Observations
KMNGREYC2
Grey Cloud Island, Grey Cloud Island, MN 55071

Grey Cloud IslandGrey Cloud Island, MN 55071

Lat: 44.799333, Lon: -92.987851

Elevation: 700

Station Type: Davis VP2

www.jagielski.com/weather/conditions.htm

High Low Average
Temperature 40.5°F4.7°C 30.0°F-1.1°C 37.0°F2.8°C
Dew Point 38.9°F3.8°C 28.3°F-2.1°C 34.1°F1.2°C
Winds 8.0 mph 12.9 kmh Calm Calm 2.0 mph SW3.2 kmh SW
Wind Gusts 18.0 mph29.0 kmh -- 7.0 mph11.3 kmh
Humidity 95% 83% 89%
Pressure 29.66 in1004.4 mb 29.39 in995.3 mb -
Precipitation 0.00 in0.0 mm - -
Hour Temp Dew Point Humidity Winds Wind Gusts Pressure Precip Precip Rate Daily Precip Total
12:00 AM 37.4°F3.0°C 31.2°F-0.4°C 78% Calm Calm 13.0 mph20.9 kmh 29.68 in1005.1 mb 0.00 in0.0 mm 0.00 in0.0 mm 0.00 in0.0 mm
12:15 AM 37.5°F3.1°C 31.3°F-0.4°C 78% 8.0 mph SE12.9 kmh SE 15.0 mph24.1 kmh 29.66 in1004.4 mb 0.00 in0.0 mm 0.00 in0.0 mm 0.00 in0.0 mm
12:30 AM 37.5°F3.1°C 31.6°F-0.2°C 79% 5.0 mph S8.0 kmh S 15.0 mph24.1 kmh 29.63 in1003.4 mb 0.00 in0.0 mm 0.00 in0.0 mm 0.00 in0.0 mm
12:45 AM 37.5°F3.1°C 32.2°F0.1°C 81% 2.0 mph SW3.2 kmh SW 18.0 mph29.0 kmh 29.65 in1004.1 mb 0.00 in0.0 mm 0.00 in0.0 mm 0.00 in0.0 mm
01:00 AM 37.5°F3.1°C 32.8°F0.4°C 83% 4.0 mph SSE6.4 kmh SSE 18.0 mph29.0 kmh 29.66 in1004.4 mb 0.00 in0.0 mm 0.00 in0.0 mm 0.00 in0.0 mm
01:15 AM 37.5°F3.1°C 32.8°F0.4°C 83% 3.0 mph SE4.8 kmh SE 13.0 mph20.9 kmh 29.65 in1004.1 mb 0.00 in0.0 mm 0.00 in0.0 mm 0.00 in0.0 mm
01:30 AM 37.4°F3.0°C 33.0°F0.6°C 84% 2.0 mph S3.2 kmh S 13.0 mph20.9 kmh 29.63 in1003.4 mb 0.00 in0.0 mm 0.00 in0.0 mm 0.00 in0.0 mm
01:45 AM 37.4°F3.0°C 33.3°F0.7°C 85% 4.0 mph ESE6.4 kmh ESE 10.0 mph16.1 kmh 29.62 in1003.0 mb 0.00 in0.0 mm 0.00 in0.0 mm 0.00 in0.0 mm
02:00 AM 37.2°F2.9°C 33.1°F0.6°C 85% Calm Calm 10.0 mph16.1 kmh 29.61 in1002.7 mb 0.00 in0.0 mm 0.00 in0.0 mm 0.00 in0.0 mm
02:15 AM 37.1°F2.8°C 33.3°F0.7°C 86% 5.0 mph E8.0 kmh E 13.0 mph20.9 kmh 29.60 in1002.4 mb 0.00 in0.0 mm 0.00 in0.0 mm 0.00 in0.0 mm
02:30 AM 37.1°F2.8°C 33.3°F0.7°C 86% 2.0 mph ESE3.2 kmh ESE 13.0 mph20.9 kmh 29.59 in1002.0 mb 0.00 in0.0 mm 0.00 in0.0 mm 0.00 in0.0 mm
02:45 AM 37.1°F2.8°C 33.6°F0.9°C 87% 8.0 mph S12.9 kmh S 9.0 mph14.5 kmh 29.57 in1001.4 mb 0.00 in0.0 mm 0.00 in0.0 mm 0.00 in0.0 mm
03:00 AM 37.2°F2.9°C 34.0°F1.1°C 88% 1.0 mph ESE1.6 kmh ESE 9.0 mph14.5 kmh 29.56 in1001.0 mb 0.00 in0.0 mm 0.00 in0.0 mm 0.00 in0.0 mm
03:15 AM 37.2°F2.9°C 34.0°F1.1°C 88% 1.0 mph SE1.6 kmh SE 9.0 mph14.5 kmh 29.56 in1001.0 mb 0.00 in0.0 mm 0.00 in0.0 mm 0.00 in0.0 mm
03:30 AM 37.3°F2.9°C 34.1°F1.2°C 88% 2.0 mph SSE3.2 kmh SSE 11.0 mph17.7 kmh 29.55 in1000.7 mb 0.00 in0.0 mm 0.00 in0.0 mm 0.00 in0.0 mm
03:45 AM 37.5°F3.1°C 34.6°F1.4°C 89% Calm Calm 9.0 mph14.5 kmh 29.55 in1000.7 mb 0.00 in0.0 mm 0.00 in0.0 mm 0.00 in0.0 mm
04:00 AM 37.5°F3.1°C 34.6°F1.4°C 89% 2.0 mph S3.2 kmh S 9.0 mph14.5 kmh 29.53 in1000.0 mb 0.00 in0.0 mm 0.00 in0.0 mm 0.00 in0.0 mm
04:15 AM 37.6°F3.1°C 34.9°F1.6°C 90% 3.0 mph SSE4.8 kmh SSE 8.0 mph12.9 kmh 29.53 in1000.0 mb 0.00 in0.0 mm 0.00 in0.0 mm 0.00 in0.0 mm
04:30 AM 37.8°F3.2°C 35.1°F1.7°C 90% 3.0 mph S4.8 kmh S 8.0 mph12.9 kmh 29.52 in999.7 mb 0.00 in0.0 mm 0.00 in0.0 mm 0.00 in0.0 mm
04:45 AM 38.0°F3.3°C 35.3°F1.8°C 90% Calm Calm 7.0 mph11.3 kmh 29.50 in999.0 mb 0.00 in0.0 mm 0.00 in0.0 mm 0.00 in0.0 mm
05:00 AM 38.2°F3.4°C 35.8°F2.1°C 91% 1.0 mph SSW1.6 kmh SSW 11.0 mph17.7 kmh 29.47 in998.0 mb 0.00 in0.0 mm 0.00 in0.0 mm 0.00 in0.0 mm
05:15 AM 38.3°F3.5°C 35.9°F2.2°C 91% 1.0 mph SSE1.6 kmh SSE 8.0 mph12.9 kmh 29.47 in998.0 mb 0.00 in0.0 mm 0.00 in0.0 mm 0.00 in0.0 mm
05:30 AM 38.5°F3.6°C 36.1°F2.3°C 91% Calm Calm 8.0 mph12.9 kmh 29.46 in997.6 mb 0.00 in0.0 mm 0.00 in0.0 mm 0.00 in0.0 mm
05:45 AM 38.6°F3.7°C 36.5°F2.5°C 92% Calm Calm 5.0 mph8.0 kmh 29.45 in997.3 mb 0.00 in0.0 mm 0.00 in0.0 mm 0.00 in0.0 mm
06:00 AM 38.7°F3.7°C 36.6°F2.6°C 92% Calm Calm 5.0 mph8.0 kmh 29.46 in997.6 mb 0.00 in0.0 mm 0.00 in0.0 mm 0.00 in0.0 mm
06:15 AM 38.7°F3.7°C 36.6°F2.6°C 92% Calm Calm 5.0 mph8.0 kmh 29.45 in997.3 mb 0.00 in0.0 mm 0.00 in0.0 mm 0.00 in0.0 mm
06:30 AM 38.8°F3.8°C 36.7°F2.6°C 92% 2.0 mph S3.2 kmh S 5.0 mph8.0 kmh 29.45 in997.3 mb 0.00 in0.0 mm 0.00 in0.0 mm 0.00 in0.0 mm
06:45 AM 38.8°F3.8°C 36.7°F2.6°C 92% 2.0 mph S3.2 kmh S 2.0 mph3.2 kmh 29.44 in997.0 mb 0.00 in0.0 mm 0.00 in0.0 mm 0.00 in0.0 mm
07:00 AM 38.8°F3.8°C 36.7°F2.6°C 92% Calm Calm 3.0 mph4.8 kmh 29.43 in996.6 mb 0.00 in0.0 mm 0.00 in0.0 mm 0.00 in0.0 mm
07:15 AM 38.7°F3.7°C 36.6°F2.6°C 92% Calm Calm 4.0 mph6.4 kmh 29.42 in996.3 mb 0.00 in0.0 mm 0.00 in0.0 mm 0.00 in0.0 mm
07:30 AM 38.7°F3.7°C 36.9°F2.7°C 93% Calm Calm 4.0 mph6.4 kmh 29.42 in996.3 mb 0.00 in0.0 mm 0.00 in0.0 mm 0.00 in0.0 mm
07:45 AM 38.7°F3.7°C 36.9°F2.7°C 93% Calm Calm 1.0 mph1.6 kmh 29.41 in995.9 mb 0.00 in0.0 mm 0.00 in0.0 mm 0.00 in0.0 mm
08:00 AM 38.5°F3.6°C 36.7°F2.6°C 93% Calm Calm 1.0 mph1.6 kmh 29.40 in995.6 mb 0.00 in0.0 mm 0.00 in0.0 mm 0.00 in0.0 mm
08:15 AM 38.3°F3.5°C 36.2°F2.3°C 92% Calm Calm -- 29.40 in995.6 mb 0.00 in0.0 mm 0.00 in0.0 mm 0.00 in0.0 mm
08:30 AM 38.1°F3.4°C 36.3°F2.4°C 93% Calm Calm 2.0 mph3.2 kmh 29.39 in995.3 mb 0.00 in0.0 mm 0.00 in0.0 mm 0.00 in0.0 mm
08:45 AM 38.4°F3.6°C 36.6°F2.6°C 93% Calm Calm 2.0 mph3.2 kmh 29.39 in995.3 mb 0.00 in0.0 mm 0.00 in0.0 mm 0.00 in0.0 mm
09:00 AM 38.2°F3.4°C 36.4°F2.4°C 93% Calm Calm 2.0 mph3.2 kmh 29.39 in995.3 mb 0.00 in0.0 mm 0.00 in0.0 mm 0.00 in0.0 mm
09:15 AM 38.0°F3.3°C 36.2°F2.3°C 93% Calm Calm 3.0 mph4.8 kmh 29.39 in995.3 mb 0.00 in0.0 mm 0.00 in0.0 mm 0.00 in0.0 mm
09:30 AM 37.9°F3.3°C 36.1°F2.3°C 93% 2.0 mph SSE3.2 kmh SSE 4.0 mph6.4 kmh 29.40 in995.6 mb 0.00 in0.0 mm 0.00 in0.0 mm 0.00 in0.0 mm
09:45 AM 38.9°F3.8°C 37.6°F3.1°C 95% 2.0 mph W3.2 kmh W 8.0 mph12.9 kmh 29.40 in995.6 mb 0.00 in0.0 mm 0.00 in0.0 mm 0.00 in0.0 mm
10:00 AM 39.8°F4.3°C 38.5°F3.6°C 95% 2.0 mph SW3.2 kmh SW 8.0 mph12.9 kmh 29.40 in995.6 mb 0.00 in0.0 mm 0.00 in0.0 mm 0.00 in0.0 mm
10:15 AM 40.2°F4.6°C 38.9°F3.8°C 95% 6.0 mph SW9.7 kmh SW 11.0 mph17.7 kmh 29.41 in995.9 mb 0.00 in0.0 mm 0.00 in0.0 mm 0.00 in0.0 mm
10:30 AM 40.1°F4.5°C 38.5°F3.6°C 94% 4.0 mph SW6.4 kmh SW 11.0 mph17.7 kmh 29.42 in996.3 mb 0.00 in0.0 mm 0.00 in0.0 mm 0.00 in0.0 mm
10:45 AM 40.0°F4.4°C 38.1°F3.4°C 93% 4.0 mph WSW6.4 kmh WSW 8.0 mph12.9 kmh 29.42 in996.3 mb 0.00 in0.0 mm 0.00 in0.0 mm 0.00 in0.0 mm
11:00 AM 39.9°F4.4°C 37.8°F3.2°C 92% 1.0 mph W1.6 kmh W 8.0 mph12.9 kmh 29.43 in996.6 mb 0.00 in0.0 mm 0.00 in0.0 mm 0.00 in0.0 mm
11:15 AM 39.7°F4.3°C 37.6°F3.1°C 92% 2.0 mph WSW3.2 kmh WSW 7.0 mph11.3 kmh 29.43 in996.6 mb 0.00 in0.0 mm 0.00 in0.0 mm 0.00 in0.0 mm
11:30 AM 39.5°F4.2°C 37.4°F3.0°C 92% 1.0 mph W1.6 kmh W 8.0 mph12.9 kmh 29.43 in996.6 mb 0.00 in0.0 mm 0.00 in0.0 mm 0.00 in0.0 mm
11:45 AM 39.3°F4.1°C 37.2°F2.9°C 92% 1.0 mph W1.6 kmh W 8.0 mph12.9 kmh 29.43 in996.6 mb 0.00 in0.0 mm 0.00 in0.0 mm 0.00 in0.0 mm
12:00 PM 39.3°F4.1°C 36.9°F2.7°C 91% Calm Calm 9.0 mph14.5 kmh 29.43 in996.6 mb 0.00 in0.0 mm 0.00 in0.0 mm 0.00 in0.0 mm
12:15 PM 39.3°F4.1°C 37.2°F2.9°C 92% 4.0 mph SW6.4 kmh SW 10.0 mph16.1 kmh 29.43 in996.6 mb 0.00 in0.0 mm 0.00 in0.0 mm 0.00 in0.0 mm
12:30 PM 39.3°F4.1°C 36.9°F2.7°C 91% 4.0 mph WSW6.4 kmh WSW 10.0 mph16.1 kmh 29.43 in996.6 mb 0.00 in0.0 mm 0.00 in0.0 mm 0.00 in0.0 mm
12:45 PM 39.5°F4.2°C 37.1°F2.8°C 91% 7.0 mph W11.3 kmh W 11.0 mph17.7 kmh 29.43 in996.6 mb 0.00 in0.0 mm 0.00 in0.0 mm 0.00 in0.0 mm
01:00 PM 39.8°F4.3°C 37.1°F2.8°C 90% 6.0 mph W9.7 kmh W 11.0 mph17.7 kmh 29.42 in996.3 mb 0.00 in0.0 mm 0.00 in0.0 mm 0.00 in0.0 mm
01:15 PM 39.9°F4.4°C 36.9°F2.7°C 89% 4.0 mph W6.4 kmh W 11.0 mph17.7 kmh 29.42 in996.3 mb 0.00 in0.0 mm 0.00 in0.0 mm 0.00 in0.0 mm
01:30 PM 40.1°F4.5°C 36.8°F2.7°C 88% 7.0 mph W11.3 kmh W 12.0 mph19.3 kmh 29.42 in996.3 mb 0.00 in0.0 mm 0.00 in0.0 mm 0.00 in0.0 mm
01:45 PM 40.2°F4.6°C 36.7°F2.6°C 87% 2.0 mph SW3.2 kmh SW 12.0 mph19.3 kmh 29.42 in996.3 mb 0.00 in0.0 mm 0.00 in0.0 mm 0.00 in0.0 mm
02:00 PM 40.3°F4.6°C 36.8°F2.7°C 87% 2.0 mph W3.2 kmh W 12.0 mph19.3 kmh 29.42 in996.3 mb 0.00 in0.0 mm 0.00 in0.0 mm 0.00 in0.0 mm
02:15 PM 40.4°F4.7°C 36.6°F2.6°C 86% 3.0 mph W4.8 kmh W 11.0 mph17.7 kmh 29.43 in996.6 mb 0.00 in0.0 mm 0.00 in0.0 mm 0.00 in0.0 mm
02:30 PM 40.5°F4.7°C 36.4°F2.4°C 85% 4.0 mph W6.4 kmh W 15.0 mph24.1 kmh 29.44 in997.0 mb 0.00 in0.0 mm 0.00 in0.0 mm 0.00 in0.0 mm
02:45 PM 40.3°F4.6°C 35.9°F2.2°C 84% 7.0 mph NW11.3 kmh NW 11.0 mph17.7 kmh 29.45 in997.3 mb 0.00 in0.0 mm 0.00 in0.0 mm 0.00 in0.0 mm
03:00 PM 40.2°F4.6°C 35.8°F2.1°C 84% 4.0 mph W6.4 kmh W 11.0 mph17.7 kmh 29.46 in997.6 mb 0.00 in0.0 mm 0.00 in0.0 mm 0.00 in0.0 mm
03:15 PM 39.8°F4.3°C 35.1°F1.7°C 83% 8.0 mph NW12.9 kmh NW 11.0 mph17.7 kmh 29.46 in997.6 mb 0.00 in0.0 mm 0.00 in0.0 mm 0.00 in0.0 mm
03:30 PM 39.6°F4.2°C 35.2°F1.8°C 84% Calm Calm 13.0 mph20.9 kmh 29.47 in998.0 mb 0.00 in0.0 mm 0.00 in0.0 mm 0.00 in0.0 mm
03:45 PM 39.3°F4.1°C 34.9°F1.6°C 84% 1.0 mph W1.6 kmh W 11.0 mph17.7 kmh 29.48 in998.3 mb 0.00 in0.0 mm 0.00 in0.0 mm 0.00 in0.0 mm
04:00 PM 39.2°F4.0°C 34.8°F1.6°C 84% 2.0 mph W3.2 kmh W 12.0 mph19.3 kmh 29.49 in998.6 mb 0.00 in0.0 mm 0.00 in0.0 mm 0.00 in0.0 mm
04:15 PM 38.9°F3.8°C 34.5°F1.4°C 84% 8.0 mph WSW12.9 kmh WSW 12.0 mph19.3 kmh 29.49 in998.6 mb 0.00 in0.0 mm 0.00 in0.0 mm 0.00 in0.0 mm
04:30 PM 38.6°F3.7°C 34.2°F1.2°C 84% 7.0 mph WSW11.3 kmh WSW 12.0 mph19.3 kmh 29.50 in999.0 mb 0.00 in0.0 mm 0.00 in0.0 mm 0.00 in0.0 mm
04:45 PM 38.3°F3.5°C 34.2°F1.2°C 85% 4.0 mph NW6.4 kmh NW 11.0 mph17.7 kmh 29.51 in999.3 mb 0.00 in0.0 mm 0.00 in0.0 mm 0.00 in0.0 mm
05:00 PM 38.1°F3.4°C 33.7°F0.9°C 84% 3.0 mph WNW4.8 kmh WNW 15.0 mph24.1 kmh 29.52 in999.7 mb 0.00 in0.0 mm 0.00 in0.0 mm 0.00 in0.0 mm
05:15 PM 37.8°F3.2°C 33.4°F0.8°C 84% 3.0 mph SW4.8 kmh SW 9.0 mph14.5 kmh 29.53 in1000.0 mb 0.00 in0.0 mm 0.00 in0.0 mm 0.00 in0.0 mm
05:30 PM 37.4°F3.0°C 33.0°F0.6°C 84% 1.0 mph WNW1.6 kmh WNW 11.0 mph17.7 kmh 29.54 in1000.3 mb 0.00 in0.0 mm 0.00 in0.0 mm 0.00 in0.0 mm
05:45 PM 37.1°F2.8°C 33.0°F0.6°C 85% 4.0 mph W6.4 kmh W 11.0 mph17.7 kmh 29.54 in1000.3 mb 0.00 in0.0 mm 0.00 in0.0 mm 0.00 in0.0 mm
06:00 PM 36.8°F2.7°C 32.7°F0.4°C 85% 3.0 mph SW4.8 kmh SW 11.0 mph17.7 kmh 29.55 in1000.7 mb 0.00 in0.0 mm 0.00 in0.0 mm 0.00 in0.0 mm
06:15 PM 36.6°F2.6°C 32.8°F0.4°C 86% 5.0 mph W8.0 kmh W 13.0 mph20.9 kmh 29.58 in1001.7 mb 0.00 in0.0 mm 0.00 in0.0 mm 0.00 in0.0 mm
06:30 PM 36.4°F2.4°C 32.6°F0.3°C 86% 1.0 mph W1.6 kmh W 13.0 mph20.9 kmh 29.59 in1002.0 mb 0.00 in0.0 mm 0.00 in0.0 mm 0.00 in0.0 mm
06:45 PM 36.3°F2.4°C 32.8°F0.4°C 87% 1.0 mph NW1.6 kmh NW 9.0 mph14.5 kmh 29.60 in1002.4 mb 0.00 in0.0 mm 0.00 in0.0 mm 0.00 in0.0 mm
07:00 PM 36.2°F2.3°C 32.7°F0.4°C 87% Calm Calm 9.0 mph14.5 kmh 29.60 in1002.4 mb 0.00 in0.0 mm 0.00 in0.0 mm 0.00 in0.0 mm
07:15 PM 36.1°F2.3°C 32.6°F0.3°C 87% 1.0 mph W1.6 kmh W 4.0 mph6.4 kmh 29.60 in1002.4 mb 0.00 in0.0 mm 0.00 in0.0 mm 0.00 in0.0 mm
07:30 PM 35.9°F2.2°C 32.4°F0.2°C 87% 2.0 mph W3.2 kmh W 4.0 mph6.4 kmh 29.61 in1002.7 mb 0.00 in0.0 mm 0.00 in0.0 mm 0.00 in0.0 mm
07:45 PM 35.7°F2.1°C 32.5°F0.3°C 88% Calm Calm 5.0 mph8.0 kmh 29.62 in1003.0 mb 0.00 in0.0 mm 0.00 in0.0 mm 0.00 in0.0 mm
08:00 PM 35.4°F1.9°C 31.9°F-0.1°C 87% Calm Calm 5.0 mph8.0 kmh 29.62 in1003.0 mb 0.00 in0.0 mm 0.00 in0.0 mm 0.00 in0.0 mm
08:15 PM 34.9°F1.6°C 31.4°F-0.3°C 87% Calm Calm 2.0 mph3.2 kmh 29.63 in1003.4 mb 0.00 in0.0 mm 0.00 in0.0 mm 0.00 in0.0 mm
08:30 PM 34.3°F1.3°C 30.8°F-0.7°C 87% Calm Calm 5.0 mph8.0 kmh 29.63 in1003.4 mb 0.00 in0.0 mm 0.00 in0.0 mm 0.00 in0.0 mm
08:45 PM 33.6°F0.9°C 30.4°F-0.9°C 88% Calm Calm 2.0 mph3.2 kmh 29.63 in1003.4 mb 0.00 in0.0 mm 0.00 in0.0 mm 0.00 in0.0 mm
09:00 PM 33.2°F0.7°C 30.3°F-0.9°C 89% Calm Calm 2.0 mph3.2 kmh 29.63 in1003.4 mb 0.00 in0.0 mm 0.00 in0.0 mm 0.00 in0.0 mm
09:15 PM 32.8°F0.4°C 29.9°F-1.2°C 89% Calm Calm -- 29.63 in1003.4 mb 0.00 in0.0 mm 0.00 in0.0 mm 0.00 in0.0 mm
09:30 PM 32.3°F0.2°C 29.4°F-1.4°C 89% Calm Calm 1.0 mph1.6 kmh 29.63 in1003.4 mb 0.00 in0.0 mm 0.00 in0.0 mm 0.00 in0.0 mm
09:45 PM 32.0°F0.0°C 29.4°F-1.4°C 90% Calm Calm 1.0 mph1.6 kmh 29.63 in1003.4 mb 0.00 in0.0 mm 0.00 in0.0 mm 0.00 in0.0 mm
10:00 PM 31.6°F-0.2°C 29.0°F-1.7°C 90% Calm Calm 1.0 mph1.6 kmh 29.64 in1003.7 mb 0.00 in0.0 mm 0.00 in0.0 mm 0.00 in0.0 mm
10:15 PM 31.4°F-0.3°C 28.8°F-1.8°C 90% Calm Calm -- 29.65 in1004.1 mb 0.00 in0.0 mm 0.00 in0.0 mm 0.00 in0.0 mm
10:30 PM 31.0°F-0.6°C 28.4°F-2.0°C 90% Calm Calm -- 29.64 in1003.7 mb 0.00 in0.0 mm 0.00 in0.0 mm 0.00 in0.0 mm
10:45 PM 30.6°F-0.8°C 28.3°F-2.1°C 91% Calm Calm 1.0 mph1.6 kmh 29.64 in1003.7 mb 0.00 in0.0 mm 0.00 in0.0 mm 0.00 in0.0 mm
11:00 PM 30.4°F-0.9°C 28.4°F-2.0°C 92% Calm Calm 1.0 mph1.6 kmh 29.64 in1003.7 mb 0.00 in0.0 mm 0.00 in0.0 mm 0.00 in0.0 mm
11:15 PM 30.3°F-0.9°C 28.3°F-2.1°C 92% Calm Calm 2.0 mph3.2 kmh 29.65 in1004.1 mb 0.00 in0.0 mm 0.00 in0.0 mm 0.00 in0.0 mm
11:30 PM 30.4°F-0.9°C 28.6°F-1.9°C 93% Calm Calm 2.0 mph3.2 kmh 29.65 in1004.1 mb 0.00 in0.0 mm 0.00 in0.0 mm 0.00 in0.0 mm
11:45 PM 30.4°F-0.9°C 28.6°F-1.9°C 93% Calm Calm -- 29.65 in1004.1 mb 0.00 in0.0 mm 0.00 in0.0 mm 0.00 in0.0 mm